createdAt,value
2023-04-28T00:02:27.385Z,101111.00
2023-04-28T00:05:31.322Z,101105.13
2023-04-28T00:08:34.403Z,101105.59
2023-04-28T00:11:38.771Z,101114.03
2023-04-28T00:14:41.349Z,101112.34
2023-04-28T00:17:44.528Z,101109.97
2023-04-28T00:20:47.266Z,101118.09
2023-04-28T00:23:56.681Z,101103.19
2023-04-28T00:26:59.150Z,101106.38
2023-04-28T00:30:02.458Z,101107.94
2023-04-28T00:33:06.239Z,101110.81
2023-04-28T00:36:10.054Z,101105.06
2023-04-28T00:39:12.917Z,101102.06
2023-04-28T00:42:15.986Z,101109.97
2023-04-28T00:45:19.201Z,101103.12
2023-04-28T00:48:24.183Z,101101.53
2023-04-28T00:51:29.171Z,101089.75
2023-04-28T00:54:34.825Z,101092.94
2023-04-28T00:57:37.936Z,101095.28
2023-04-28T01:00:40.661Z,101101.87
2023-04-28T01:03:44.208Z,101102.16
2023-04-28T01:07:01.801Z,101098.94
2023-04-28T01:10:05.209Z,101109.09
2023-04-28T01:13:09.946Z,101111.37
2023-04-28T01:16:13.216Z,101113.94
2023-04-28T01:19:23.579Z,101109.25
2023-04-28T01:22:28.231Z,101118.16
2023-04-28T01:25:31.654Z,101110.41
2023-04-28T01:28:35.918Z,101120.84
2023-04-28T01:31:39.643Z,101120.53
2023-04-28T01:34:42.160Z,101114.41
2023-04-28T01:37:45.357Z,101111.84
2023-04-28T01:40:48.192Z,101107.69
2023-04-28T01:43:58.156Z,101106.12
2023-04-28T01:47:01.188Z,101109.50
2023-04-28T01:50:06.054Z,101107.03
2023-04-28T01:53:08.968Z,101097.94
2023-04-28T01:56:12.589Z,101106.03
2023-04-28T01:59:16.396Z,101096.72
2023-04-28T02:02:19.464Z,101096.72
2023-04-28T02:05:22.476Z,101099.31
2023-04-28T02:08:25.190Z,101112.88
2023-04-28T02:11:28.029Z,101118.25
2023-04-28T02:14:34.469Z,101110.75
2023-04-28T02:17:37.326Z,101111.31
2023-04-28T02:20:41.071Z,101117.94
2023-04-28T02:23:44.490Z,101115.59
2023-04-28T02:26:47.233Z,101130.38
2023-04-28T02:29:50.696Z,101121.66
2023-04-28T02:32:53.799Z,101124.91
2023-04-28T02:36:03.750Z,101128.81
2023-04-28T02:39:06.187Z,101121.31
2023-04-28T02:42:10.575Z,101134.87
2023-04-28T02:45:13.289Z,101136.00
2023-04-28T02:48:16.427Z,101129.28
2023-04-28T02:51:19.050Z,101133.66
2023-04-28T02:54:27.769Z,101130.72
2023-04-28T02:57:31.344Z,101135.09
2023-04-28T03:00:34.547Z,101134.66
2023-04-28T03:03:37.721Z,101130.62
2023-04-28T03:06:42.369Z,101137.56
2023-04-28T03:09:46.569Z,101134.19
2023-04-28T03:12:50.103Z,101142.16
2023-04-28T03:15:56.317Z,101134.59
2023-04-28T03:19:00.234Z,101141.59
2023-04-28T03:22:02.802Z,101141.81
2023-04-28T03:25:08.358Z,101147.19
2023-04-28T03:28:12.100Z,101147.41
2023-04-28T03:31:15.708Z,101145.06
2023-04-28T03:34:21.049Z,101147.75
2023-04-28T03:37:24.244Z,101147.53
2023-04-28T03:40:28.023Z,101154.72
2023-04-28T03:43:33.224Z,101152.69
2023-04-28T03:46:40.926Z,101154.47
2023-04-28T03:49:44.088Z,101153.03
2023-04-28T03:52:47.392Z,101160.09
2023-04-28T03:55:52.867Z,101150.22
2023-04-28T03:58:59.761Z,101154.16
2023-04-28T04:02:02.723Z,101148.87
2023-04-28T04:05:10.267Z,101146.97
2023-04-28T04:08:19.959Z,101144.72
2023-04-28T04:11:23.598Z,101157.16
2023-04-28T04:14:28.372Z,101154.53
2023-04-28T04:17:32.724Z,101158.97
2023-04-28T04:20:35.541Z,101162.19
2023-04-28T04:23:40.391Z,101162.81
2023-04-28T04:26:45.679Z,101169.25
2023-04-28T04:29:51.628Z,101170.91
2023-04-28T04:32:54.971Z,101173.06
2023-04-28T04:36:02.116Z,101172.72
2023-04-28T04:39:18.242Z,101167.03
2023-04-28T04:42:24.904Z,101173.22
2023-04-28T04:45:33.928Z,101173.50
2023-04-28T04:48:37.326Z,101162.87
2023-04-28T04:51:41.870Z,101158.28
2023-04-28T04:54:46.424Z,101164.09
2023-04-28T04:57:49.511Z,101166.56
2023-04-28T05:00:58.908Z,101164.22
2023-04-28T05:04:05.933Z,101160.38
2023-04-28T05:07:17.843Z,101151.28
2023-04-28T05:10:22.344Z,101155.53
2023-04-28T05:13:30.071Z,101155.53
2023-04-28T05:16:39.556Z,101152.34
2023-04-28T05:19:44.198Z,101160.62
2023-04-28T05:22:47.422Z,101156.94
2023-04-28T05:25:57.178Z,101161.59
2023-04-28T05:29:00.968Z,101164.00
2023-04-28T05:32:07.455Z,101164.84
2023-04-28T05:35:19.915Z,101166.16
2023-04-28T05:38:25.892Z,101170.59
2023-04-28T05:41:29.862Z,101168.63
2023-04-28T05:44:36.398Z,101171.72
2023-04-28T05:47:41.841Z,101165.06
2023-04-28T05:50:51.364Z,101169.66
2023-04-28T05:53:54.779Z,101173.78
2023-04-28T05:57:00.809Z,101168.59
2023-04-28T06:00:05.906Z,101173.50
2023-04-28T06:03:19.468Z,101176.50
2023-04-28T06:06:27.860Z,101177.88
2023-04-28T06:09:31.787Z,101172.84
2023-04-28T06:12:38.175Z,101176.06
2023-04-28T06:15:41.881Z,101182.00
2023-04-28T06:18:47.335Z,101180.31
2023-04-28T06:22:00.807Z,101182.34
2023-04-28T06:25:06.443Z,101175.69
2023-04-28T06:28:10.211Z,101175.34
2023-04-28T06:31:13.608Z,101191.06
2023-04-28T06:34:20.868Z,101191.59
2023-04-28T06:37:24.326Z,101188.81
2023-04-28T06:40:27.365Z,101188.84
2023-04-28T06:43:30.612Z,101187.41
2023-04-28T06:46:41.328Z,101181.47
2023-04-28T06:49:50.259Z,101191.28
2023-04-28T06:52:53.463Z,101190.56
2023-04-28T06:55:58.495Z,101189.13
2023-04-28T06:59:04.478Z,101190.53
2023-04-28T07:02:07.676Z,101184.19
2023-04-28T07:05:12.649Z,101182.16
2023-04-28T07:08:18.888Z,101184.34
2023-04-28T07:11:29.832Z,101174.88
2023-04-28T07:14:39.906Z,101171.97
2023-04-28T07:17:42.929Z,101171.12
2023-04-28T07:20:48.859Z,101173.03
2023-04-28T07:23:53.954Z,101172.22
2023-04-28T07:26:58.081Z,101180.56
2023-04-28T07:30:11.575Z,101170.91
2023-04-28T07:33:24.383Z,101167.75
2023-04-28T07:36:27.563Z,101172.09
2023-04-28T07:39:35.037Z,101170.19
2023-04-28T07:42:38.954Z,101170.06
2023-04-28T07:45:42.419Z,101166.75
2023-04-28T07:48:57.879Z,101171.97
2023-04-28T07:52:01.831Z,101161.63
2023-04-28T07:55:05.100Z,101160.72
2023-04-28T07:58:10.817Z,101153.47
2023-04-28T08:01:15.909Z,101151.00
2023-04-28T08:04:26.910Z,101136.72
2023-04-28T08:07:30.231Z,101122.56
2023-04-28T08:10:33.892Z,101125.19
2023-04-28T08:13:40.417Z,101113.00
2023-04-28T08:16:44.943Z,101109.91
2023-04-28T08:19:47.819Z,101108.34
2023-04-28T08:22:52.314Z,101101.03
2023-04-28T08:25:56.682Z,101094.31
2023-04-28T08:29:03.771Z,101078.69
2023-04-28T08:32:07.581Z,101080.28
2023-04-28T08:35:15.441Z,101076.25
2023-04-28T08:38:19.227Z,101084.28
2023-04-28T08:41:26.293Z,101085.13
2023-04-28T08:44:37.212Z,101088.06
2023-04-28T08:47:50.099Z,101080.63
2023-04-28T08:50:55.037Z,101078.03
2023-04-28T08:57:11.256Z,101088.50
2023-04-28T09:00:19.467Z,101076.91
2023-04-28T09:03:23.280Z,101080.69
2023-04-28T09:06:36.008Z,101071.56
2023-04-28T09:09:41.319Z,101080.19
2023-04-28T09:13:00.869Z,101082.72
2023-04-28T09:16:06.021Z,101079.25
2023-04-28T09:19:10.582Z,101075.47
2023-04-28T09:22:26.119Z,101078.78
2023-04-28T09:25:32.036Z,101075.72
2023-04-28T09:28:36.951Z,101070.56
2023-04-28T09:31:44.148Z,101068.19
2023-04-28T09:34:58.452Z,101068.25
2023-04-28T09:38:05.996Z,101070.16
2023-04-28T09:41:15.827Z,101071.16
2023-04-28T09:44:21.915Z,101064.16
2023-04-28T09:47:28.180Z,101060.84
2023-04-28T09:50:41.338Z,101055.94
2023-04-28T09:53:46.943Z,101055.28
2023-04-28T09:56:51.246Z,101052.62
2023-04-28T09:59:57.171Z,101037.09
2023-04-28T10:03:13.192Z,101040.25
2023-04-28T10:06:18.124Z,101045.06
2023-04-28T10:09:26.664Z,101030.69
2023-04-28T10:12:29.716Z,101023.94
2023-04-28T10:15:35.635Z,101018.06
2023-04-28T10:18:39.469Z,101019.69
2023-04-28T10:21:49.495Z,101010.31
2023-04-28T10:25:14.503Z,101006.37
2023-04-28T10:28:17.601Z,100993.50
2023-04-28T10:31:24.901Z,100991.41
2023-04-28T10:34:32.035Z,100995.28
2023-04-28T10:38:04.334Z,100985.09
2023-04-28T10:41:34.497Z,100979.69
2023-04-28T10:44:43.881Z,100984.12
2023-04-28T10:48:06.852Z,100966.28
2023-04-28T10:51:15.902Z,100972.50
2023-04-28T10:54:21.527Z,100956.34
2023-04-28T10:57:25.843Z,100959.16
2023-04-28T11:00:31.155Z,100952.09
2023-04-28T11:04:13.022Z,100949.81
2023-04-28T11:07:17.531Z,100948.78
2023-04-28T11:10:21.524Z,100939.16
2023-04-28T11:13:35.963Z,100939.22
2023-04-28T11:16:54.062Z,100934.97
2023-04-28T11:19:59.800Z,100939.59
2023-04-28T11:23:04.761Z,100933.44
2023-04-28T11:26:15.317Z,100932.13
2023-04-28T11:29:30.892Z,100935.50
2023-04-28T11:32:35.017Z,100933.72
2023-04-28T11:35:42.039Z,100927.44
2023-04-28T11:38:47.106Z,100922.47
2023-04-28T11:41:51.066Z,100928.44
2023-04-28T11:45:03.154Z,100929.44
2023-04-28T11:48:23.218Z,100923.53
2023-04-28T11:51:38.829Z,100911.06
2023-04-28T11:54:44.086Z,100913.84
2023-04-28T11:58:23.974Z,100905.94
2023-04-28T12:01:33.862Z,100906.97
2023-04-28T12:04:42.829Z,100900.97
2023-04-28T12:07:58.970Z,100908.56
2023-04-28T12:11:16.193Z,100903.06
2023-04-28T12:14:21.205Z,100895.94
2023-04-28T12:17:29.997Z,100886.62
2023-04-28T12:20:37.346Z,100895.91
2023-04-28T12:23:43.366Z,100891.44
2023-04-28T12:26:50.952Z,100892.06
2023-04-28T12:29:57.837Z,100882.00
2023-04-28T12:33:06.951Z,100869.69
2023-04-28T12:36:10.961Z,100863.78
2023-04-28T12:39:22.829Z,100853.97
2023-04-28T12:42:27.916Z,100857.75
2023-04-28T12:45:32.934Z,100852.81
2023-04-28T12:48:37.438Z,100851.31
2023-04-28T12:52:00.829Z,100826.28
2023-04-28T12:55:04.798Z,100824.47
2023-04-28T12:58:15.928Z,100814.13
2023-04-28T13:01:19.698Z,100810.88
2023-04-28T13:04:25.803Z,100806.87
2023-04-28T13:07:36.822Z,100786.84
2023-04-28T13:10:42.135Z,100783.25
2023-04-28T13:13:45.918Z,100776.13
2023-04-28T13:16:49.067Z,100779.69
2023-04-28T13:19:53.449Z,100769.13
2023-04-28T13:22:57.432Z,100772.87
2023-04-28T13:26:02.909Z,100764.97
2023-04-28T13:29:09.854Z,100764.44
2023-04-28T13:32:14.041Z,100762.63
2023-04-28T13:35:17.797Z,100753.50
2023-04-28T13:38:24.451Z,100751.44
2023-04-28T13:41:29.870Z,100763.00
2023-04-28T13:44:33.889Z,100758.78
2023-04-28T13:47:37.641Z,100757.81
2023-04-28T13:50:43.518Z,100757.41
2023-04-28T13:53:46.792Z,100750.41
2023-04-28T13:56:51.515Z,100751.44
2023-04-28T13:59:54.484Z,100742.41
2023-04-28T14:02:58.508Z,100740.69
2023-04-28T14:06:07.364Z,100733.59
2023-04-28T14:09:18.084Z,100721.31
2023-04-28T14:12:25.858Z,100719.25
2023-04-28T14:15:33.233Z,100718.22
2023-04-28T14:18:41.909Z,100710.56
2023-04-28T14:21:45.028Z,100709.69
2023-04-28T14:24:53.910Z,100706.91
2023-04-28T14:27:59.947Z,100706.88
2023-04-28T14:31:09.294Z,100701.63
2023-04-28T14:34:19.164Z,100699.66
2023-04-28T14:37:27.547Z,100698.09
2023-04-28T14:40:31.353Z,100689.44
2023-04-28T14:43:35.470Z,100685.91
2023-04-28T14:46:40.321Z,100683.09
2023-04-28T14:49:45.246Z,100689.44
2023-04-28T14:52:49.884Z,100690.25
2023-04-28T14:55:59.451Z,100688.28
2023-04-28T14:59:13.172Z,100682.19
2023-04-28T15:02:21.925Z,100684.75
2023-04-28T15:05:34.874Z,100666.28
2023-04-28T15:08:46.515Z,100667.22
2023-04-28T15:11:52.087Z,100665.50
2023-04-28T15:14:55.947Z,100671.59
2023-04-28T15:18:07.828Z,100671.53
2023-04-28T15:21:18.880Z,100669.81
2023-04-28T15:24:26.067Z,100663.59
2023-04-28T15:27:30.433Z,100667.06
2023-04-28T15:30:34.428Z,100652.06
2023-04-28T15:33:40.821Z,100653.63
2023-04-28T15:36:47.934Z,100653.53
2023-04-28T15:39:52.653Z,100643.72
2023-04-28T15:43:04.389Z,100648.91
2023-04-28T15:46:11.148Z,100652.38
2023-04-28T15:49:22.857Z,100651.31
2023-04-28T15:52:27.225Z,100651.94
2023-04-28T15:55:38.785Z,100650.09
2023-04-28T15:58:42.734Z,100643.00
2023-04-28T16:01:55.935Z,100639.47
2023-04-28T16:05:02.667Z,100639.31
2023-04-28T16:08:08.456Z,100632.28
2023-04-28T16:11:19.495Z,100624.31
2023-04-28T16:14:33.591Z,100627.78
2023-04-28T16:17:39.952Z,100612.81
2023-04-28T16:20:44.903Z,100623.28
2023-04-28T16:23:52.258Z,100622.38
2023-04-28T16:27:02.060Z,100617.09
2023-04-28T16:30:08.605Z,100616.19
2023-04-28T16:33:12.914Z,100618.78
2023-04-28T16:36:20.141Z,100603.78
2023-04-28T16:39:23.774Z,100591.47
2023-04-28T16:42:34.913Z,100586.16
2023-04-28T16:45:38.484Z,100587.03
2023-04-28T16:48:48.906Z,100587.00
2023-04-28T16:52:09.894Z,100562.31
2023-04-28T16:55:19.329Z,100573.78
2023-04-28T16:58:27.961Z,100571.00
2023-04-28T17:01:37.116Z,100572.75
2023-04-28T17:04:44.052Z,100575.31
2023-04-28T17:07:49.292Z,100569.09
2023-04-28T17:10:54.004Z,100562.00
2023-04-28T17:14:01.896Z,100561.06
2023-04-28T17:17:14.385Z,100551.31
2023-04-28T17:20:20.315Z,100549.47
2023-04-28T17:23:31.908Z,100537.09
2023-04-28T17:26:38.869Z,100537.84
2023-04-28T17:29:43.939Z,100521.97
2023-04-28T17:32:50.144Z,100521.91
2023-04-28T17:35:59.381Z,100511.28
2023-04-28T17:39:07.872Z,100505.94
2023-04-28T17:42:20.776Z,100499.75
2023-04-28T17:45:29.441Z,100520.72
2023-04-28T17:48:36.284Z,100528.53
2023-04-28T17:51:40.365Z,100540.69
2023-04-28T17:54:45.562Z,100551.12
2023-04-28T17:57:52.085Z,100552.66
2023-04-28T18:01:09.982Z,100552.69
2023-04-28T18:04:16.946Z,100550.16
2023-04-28T18:07:22.886Z,100544.81
2023-04-28T18:10:28.334Z,100550.91
2023-04-28T18:13:31.531Z,100555.13
2023-04-28T18:16:36.870Z,100562.00
2023-04-28T18:19:45.924Z,100565.38
2023-04-28T18:22:53.160Z,100569.75
2023-04-28T18:26:08.939Z,100559.09
2023-04-28T18:29:14.698Z,100561.59
2023-04-28T18:32:22.921Z,100569.37
2023-04-28T18:35:27.962Z,100568.28
2023-04-28T18:38:38.091Z,100563.78
2023-04-28T18:41:44.527Z,100568.09
2023-04-28T18:44:58.461Z,100564.44
2023-04-28T18:48:09.184Z,100559.88
2023-04-28T18:51:23.418Z,100561.50
2023-04-28T18:54:32.834Z,100561.44
2023-04-28T18:57:51.887Z,100565.81
2023-04-28T19:01:00.475Z,100562.28
2023-04-28T19:04:11.403Z,100555.19
2023-04-28T19:07:22.115Z,100554.25
2023-04-28T19:10:27.901Z,100559.31
2023-04-28T19:13:40.971Z,100553.19
2023-04-28T19:16:44.803Z,100558.31
2023-04-28T19:20:00.110Z,100557.31
2023-04-28T19:23:05.660Z,100564.31
2023-04-28T19:26:13.026Z,100565.22
2023-04-28T19:29:17.934Z,100567.84
2023-04-28T19:32:25.560Z,100564.31
2023-04-28T19:35:32.948Z,100567.78
2023-04-28T19:38:40.334Z,100573.91
2023-04-28T19:41:43.911Z,100572.09
2023-04-28T19:44:49.862Z,100566.69
2023-04-28T19:47:57.047Z,100574.50
2023-04-28T19:51:07.949Z,100571.81
2023-04-28T19:54:16.279Z,100580.50
2023-04-28T19:57:22.128Z,100576.16
2023-04-28T20:00:32.298Z,100570.69
2023-04-28T20:03:39.608Z,100571.50
2023-04-28T20:06:43.747Z,100560.00
2023-04-28T20:09:57.034Z,100565.97
2023-04-28T20:13:01.442Z,100550.09
2023-04-28T20:16:05.998Z,100543.19
2023-04-28T20:19:12.086Z,100537.00
2023-04-28T20:22:21.086Z,100523.88
2023-04-28T20:25:25.300Z,100517.78
2023-04-28T20:28:29.694Z,100523.00
2023-04-28T20:31:40.730Z,100522.13
2023-04-28T20:34:45.665Z,100517.88
2023-04-28T20:37:58.921Z,100517.91
2023-04-28T20:41:05.446Z,100510.16
2023-04-28T20:44:10.135Z,100504.16
2023-04-28T20:47:14.895Z,100514.69
2023-04-28T20:50:18.584Z,100522.44
2023-04-28T20:53:23.032Z,100526.84
2023-04-28T20:56:27.306Z,100520.78
2023-04-28T20:59:33.833Z,100515.50
2023-04-28T21:02:38.078Z,100523.34
2023-04-28T21:05:46.001Z,100538.16
2023-04-28T21:08:51.171Z,100531.09
2023-04-28T21:11:55.056Z,100523.09
2023-04-28T21:15:00.888Z,100516.94
2023-04-28T21:18:04.640Z,100516.00
2023-04-28T21:21:14.882Z,100506.31
2023-04-28T21:24:19.352Z,100508.84
2023-04-28T21:27:22.012Z,100506.19
2023-04-28T21:30:28.102Z,100504.44
2023-04-28T21:33:32.793Z,100509.66
2023-04-28T21:36:36.932Z,100513.16
2023-04-28T21:39:39.371Z,100513.16
2023-04-28T21:42:42.644Z,100522.75
2023-04-28T21:45:45.652Z,100527.03
2023-04-28T21:48:49.159Z,100512.22
2023-04-28T21:51:53.112Z,100491.88
2023-04-28T21:54:57.091Z,100509.59
2023-04-28T21:58:01.080Z,100504.31
2023-04-28T22:01:06.529Z,100487.50
2023-04-28T22:04:11.347Z,100498.09
2023-04-28T22:07:16.242Z,100510.25
2023-04-28T22:10:19.518Z,100510.22
2023-04-28T22:13:23.466Z,100523.22
2023-04-28T22:16:26.879Z,100512.72
2023-04-28T22:19:31.047Z,100512.72
2023-04-28T22:22:35.150Z,100516.19
2023-04-28T22:25:41.265Z,100517.88
2023-04-28T22:28:44.358Z,100510.00
2023-04-28T22:31:47.996Z,100505.56
2023-04-28T22:35:01.968Z,100511.66
2023-04-28T22:38:05.045Z,100503.88
2023-04-28T22:41:12.331Z,100509.09
2023-04-28T22:44:17.210Z,100508.09
2023-04-28T22:47:21.255Z,100503.72
2023-04-28T22:50:23.854Z,100497.41
2023-04-28T22:53:26.810Z,100492.06
2023-04-28T22:56:29.638Z,100492.88
2023-04-28T22:59:33.381Z,100493.59
2023-04-28T23:02:36.838Z,100498.78
2023-04-28T23:05:39.923Z,100495.25
2023-04-28T23:08:42.654Z,100493.44
2023-04-28T23:11:45.839Z,100488.13
2023-04-28T23:14:48.524Z,100487.13
2023-04-28T23:17:51.758Z,100487.03
2023-04-28T23:20:54.756Z,100491.31
2023-04-28T23:23:57.739Z,100487.53
2023-04-28T23:27:00.822Z,100481.31
2023-04-28T23:30:04.369Z,100481.19
2023-04-28T23:33:07.132Z,100478.63
2023-04-28T23:36:12.959Z,100474.97
2023-04-28T23:39:15.798Z,100472.16
2023-04-28T23:42:19.059Z,100468.69
2023-04-28T23:45:21.832Z,100468.53
2023-04-28T23:48:25.115Z,100472.06
2023-04-28T23:51:27.852Z,100465.62
2023-04-28T23:54:30.882Z,100453.53
2023-04-28T23:57:33.670Z,100457.75
